Terminal Aerodrome Forecast
Issued by NWS

Home | Current Version | Previous Version | Text Only | Print | Product List | Glossary On
Versions: 1 2 3 4 5 6 7 8 9 10 11 12 13 14 15 16 17 18 19 20
000
FTUS45 KTFX 212300
TAFCTB
TAF
KCTB 212331Z 2200/2224 36011KT P6SM BKN020 OVC035
     FM220300 03008KT P6SM VCSH SCT020 OVC050
     FM221200 04006KT 6SM -RA BR SCT005 OVC012=

USA.gov is the U.S. government's official web portal to all federal, state and local government web resources and services.